Master Jet — 5BKD3 — position and weather

sailwx.info

Track history (hours):
 
Tides and Currents Weather Stations Pressure Air Temp Water Temp Dewpoint Dewpoint Depression Visibility Wind Speed Wind Dir Waves Ship Positions

Master Jet

Last reported at 2016-Jul-25 23:34 UTC. Time now 2016-Jul-28 14:34 UTC.
Position N 37°41' E 024°05'.

Length 74 m; draft 2.9 m.

Type: Ship. MMSI: 209349000.

Date/timePositionNaut miles runAvg speedWind from/ knotsBaromVisibWave heightAir tempDewpointWater temp
2016-Jul-25 23:34N 37°41' E 024°05'2 0.1
2016-Jul-24 23:25N 37°43' E 024°04'0 0.0
2016-Jul-23 18:25N 37°43' E 024°04'0 0.0
2016-Jul-23 03:15N 37°42' E 024°04'0 0.0
2016-Jul-23 02:33N 37°42' E 024°04'0 0.0
2016-Jul-23 01:30N 37°42' E 024°04'0 0.0
2016-Jul-23 00:27N 37°42' E 024°04'0 0.0
2016-Jul-22 23:30N 37°42' E 024°04'0 0.0
2016-Jul-22 22:30N 37°42' E 024°04'0 0.0
2016-Jul-22 21:33N 37°42' E 024°04'0 0.0
2016-Jul-22 20:21N 37°42' E 024°04'0 0.0
2016-Jul-22 19:33N 37°42' E 024°04'0 0.0
2016-Jul-22 18:27N 37°42' E 024°04'0 0.0
2016-Jul-21 14:30N 37°43' E 024°04'19 9.6
2016-Jul-21 12:31N 38°01' E 024°01'5427.2
2016-Jul-21 10:32N 37°35' E 025°00'1717.2
2016-Jul-21 09:33N 37°28' E 025°19'2210.8
2016-Jul-21 07:33N 37°06' E 025°22'7 0.6
2016-Jul-20 19:34N 37°00' E 025°19'15 7.6
2016-Jul-20 17:33N 37°14' E 025°13'1514.8
2016-Jul-20 16:34N 37°29' E 025°16'6819.9
2016-Jul-20 13:10N 38°01' E 024°01'19 1.9
2016-Jul-20 03:24N 37°42' E 024°04'0 0.0
2016-Jul-20 01:06N 37°43' E 024°04'0 0.0
2016-Jul-19 23:24N 37°42' E 024°04'0 0.0
2016-Jul-19 22:30N 37°42' E 024°04'0 0.0
2016-Jul-19 21:21N 37°42' E 024°04'0 0.0
2016-Jul-19 19:18N 37°42' E 024°04'  
Track history (hours):
 
Tides and Currents Weather Stations Pressure Air Temp Water Temp Dewpoint Dewpoint Depression Visibility Wind Speed Wind Dir Waves Ship Positions

Master Jet

Last reported at 2016-Jul-25 23:34 UTC. Time now 2016-Jul-28 14:34 UTC.
Position N 37°41' E 024°05'.

Length 74 m; draft 2.9 m.

Type: Ship. MMSI: 209349000.

Date/timePositionNaut miles runAvg speedWind from/ knotsBaromVisibWave heightAir tempDewpointWater temp
2016-Jul-25 23:34N 37°41' E 024°05'2 0.1
2016-Jul-24 23:25N 37°43' E 024°04'0 0.0
2016-Jul-23 18:25N 37°43' E 024°04'0 0.0
2016-Jul-23 03:15N 37°42' E 024°04'0 0.0
2016-Jul-23 02:33N 37°42' E 024°04'0 0.0
2016-Jul-23 01:30N 37°42' E 024°04'0 0.0
2016-Jul-23 00:27N 37°42' E 024°04'0 0.0
2016-Jul-22 23:30N 37°42' E 024°04'0 0.0
2016-Jul-22 22:30N 37°42' E 024°04'0 0.0
2016-Jul-22 21:33N 37°42' E 024°04'0 0.0
2016-Jul-22 20:21N 37°42' E 024°04'0 0.0
2016-Jul-22 19:33N 37°42' E 024°04'0 0.0
2016-Jul-22 18:27N 37°42' E 024°04'0 0.0
2016-Jul-21 14:30N 37°43' E 024°04'19 9.6
2016-Jul-21 12:31N 38°01' E 024°01'5427.2
2016-Jul-21 10:32N 37°35' E 025°00'1717.2
2016-Jul-21 09:33N 37°28' E 025°19'2210.8
2016-Jul-21 07:33N 37°06' E 025°22'7 0.6
2016-Jul-20 19:34N 37°00' E 025°19'15 7.6
2016-Jul-20 17:33N 37°14' E 025°13'1514.8
2016-Jul-20 16:34N 37°29' E 025°16'6819.9
2016-Jul-20 13:10N 38°01' E 024°01'19 1.9
2016-Jul-20 03:24N 37°42' E 024°04'0 0.0
2016-Jul-20 01:06N 37°43' E 024°04'0 0.0
2016-Jul-19 23:24N 37°42' E 024°04'0 0.0
2016-Jul-19 22:30N 37°42' E 024°04'0 0.0
2016-Jul-19 21:21N 37°42' E 024°04'0 0.0
2016-Jul-19 19:18N 37°42' E 024°04'  

Dump ship's entire track history